Time;durP1;ratioP1;P1;durP2;ratioP2;P2;SDS_P1;SDS_P2;PMS_P1;PMS_P2;Temp;Humidity;BMP_temperature;BMP_pressure;BME280_temperature;BME280_humidity;BME280_pressure;Samples;Min_cycle;Max_cycle;Signal;HPM_P1;HPM_P2
2021/03/25 00:00:14;;;;;;;24.00;13.75;;;;;;;12.49;47.42;101597.78;353900;27;1170;-62
2021/03/25 00:00:29;;;;;;;23.25;13.73;;;;;;;12.47;47.69;101589.88;351315;27;72195;-61
2021/03/25 00:00:42;;;;;;;23.73;14.10;;;;;;;12.51;48.30;101596.75;352254;27;48362;-60
2021/03/25 00:00:55;;;;;;;23.33;13.65;;;;;;;12.52;47.36;101589.69;353736;27;1179;-60
2021/03/25 00:01:12;;;;;;;24.30;13.23;;;;;;;12.52;48.14;101592.34;353882;27;1198;-61
2021/03/25 00:01:27;;;;;;;24.70;13.00;;;;;;;12.54;47.04;101590.47;351369;27;72055;-62
2021/03/25 00:01:41;;;;;;;25.35;13.40;;;;;;;12.54;48.22;101596.66;352287;27;49221;-62
2021/03/25 00:01:55;;;;;;;22.77;13.23;;;;;;;12.52;47.73;101590.53;353092;27;23935;-61
2021/03/25 00:02:07;;;;;;;20.33;13.07;;;;;;;12.54;47.15;101595.78;352268;27;49138;-61
2021/03/25 00:02:19;;;;;;;21.63;13.32;;;;;;;12.51;47.63;101591.47;353851;27;1148;-61
2021/03/25 00:02:30;;;;;;;21.13;13.15;;;;;;;12.49;47.19;101588.03;353789;27;1109;-61
2021/03/25 00:02:41;;;;;;;19.73;12.77;;;;;;;12.52;46.94;101589.69;353881;27;1154;-61
2021/03/25 00:02:54;;;;;;;19.52;12.60;;;;;;;12.47;47.66;101587.22;353899;27;994;-61
2021/03/25 00:03:09;;;;;;;19.90;12.55;;;;;;;12.49;46.96;101588.03;353828;27;1076;-61
2021/03/25 00:03:22;;;;;;;21.33;13.05;;;;;;;12.50;46.66;101588.88;351514;27;70884;-63
2021/03/25 00:03:33;;;;;;;22.63;13.30;;;;;;;12.47;46.61;101587.22;352343;28;1176;-61
2021/03/25 00:03:47;;;;;;;21.77;13.43;;;;;;;12.47;47.63;101581.06;352404;28;1160;-62
2021/03/25 00:03:58;;;;;;;20.92;13.07;;;;;;;12.46;47.98;101579.34;351561;28;23606;-62
2021/03/25 00:04:09;;;;;;;20.85;13.20;;;;;;;12.49;48.29;101581.88;352316;28;1040;-61
2021/03/25 00:04:22;;;;;;;21.12;12.90;;;;;;;12.51;48.03;101590.63;352337;28;1224;-61
2021/03/25 00:04:33;;;;;;;22.58;12.75;;;;;;;12.50;47.26;101583.59;352363;28;1131;-60
2021/03/25 00:04:44;;;;;;;23.58;13.00;;;;;;;12.47;47.16;101591.66;352308;28;1201;-61
2021/03/25 00:04:55;;;;;;;23.92;13.63;;;;;;;12.48;47.47;101582.81;352396;28;1060;-63
2021/03/25 00:05:08;;;;;;;22.75;13.70;;;;;;;12.50;47.81;101584.47;352328;28;1084;-62
2021/03/25 00:05:23;;;;;;;22.63;13.82;;;;;;;12.46;47.78;101593.47;352360;28;1072;-61
2021/03/25 00:05:34;;;;;;;22.17;13.73;;;;;;;12.44;47.79;101578.56;352896;27;24163;-62
2021/03/25 00:05:48;;;;;;;21.42;13.52;;;;;;;12.38;47.17;101585.81;353876;27;1215;-61
2021/03/25 00:06:00;;;;;;;21.95;13.35;;;;;;;12.39;47.24;101584.91;352920;27;24182;-61
2021/03/25 00:06:11;;;;;;;21.10;13.23;;;;;;;12.41;47.83;101578.69;353930;27;1064;-62
2021/03/25 00:06:24;;;;;;;20.42;13.32;;;;;;;12.43;48.15;101584.78;353922;27;1150;-60
2021/03/25 00:06:38;;;;;;;23.33;13.77;;;;;;;12.38;47.01;101584.97;353823;27;1008;-61
2021/03/25 00:06:52;;;;;;;25.55;13.73;;;;;;;12.42;46.80;101583.03;353033;27;23951;-63
2021/03/25 00:07:04;;;;;;;24.25;13.73;;;;;;;12.43;46.87;101576.81;353030;27;24166;-62
2021/03/25 00:07:15;;;;;;;24.35;13.80;;;;;;;12.39;47.96;101578.72;353730;27;1713;-62
2021/03/25 00:07:26;;;;;;;23.98;13.63;;;;;;;12.43;48.41;101585.63;354419;27;1831;-62
2021/03/25 00:07:38;;;;;;;23.50;13.55;;;;;;;12.44;47.04;101581.19;355331;27;1073;-62
2021/03/25 00:08:08;;;;;;;23.50;13.95;;;;;;;12.45;47.06;101578.50;352780;27;70674;-61
2021/03/25 00:08:24;;;;;;;20.92;13.50;;;;;;;12.46;46.71;101582.00;352895;27;70787;-62
2021/03/25 00:08:36;;;;;;;20.60;13.40;;;;;;;12.50;48.45;101586.22;352775;27;72128;-64
2021/03/25 00:08:47;;;;;;;21.92;13.50;;;;;;;12.46;48.21;101582.00;355163;27;1044;-62
2021/03/25 00:08:58;;;;;;;19.92;13.15;;;;;;;12.48;48.06;101575.69;355325;27;2136;-63
2021/03/25 00:09:16;;;;;;;20.92;13.35;;;;;;;12.45;48.01;101580.28;355290;27;1137;-63
2021/03/25 00:09:37;;;;;;;23.73;14.55;;;;;;;12.47;47.88;101578.41;352847;27;69619;-63
2021/03/25 00:09:48;;;;;;;22.73;14.10;;;;;;;12.47;48.37;101571.31;352750;27;71873;-62
2021/03/25 00:09:59;;;;;;;22.58;13.57;;;;;;;12.49;47.87;101579.22;355300;27;1129;-62
2021/03/25 00:10:16;;;;;;;20.73;13.25;;;;;;;12.52;48.15;101584.41;355300;27;1068;-61
2021/03/25 00:10:32;;;;;;;20.52;13.20;;;;;;;12.51;47.84;101574.72;352898;27;71963;-61
2021/03/25 00:10:44;;;;;;;20.50;13.48;;;;;;;12.50;47.34;101579.16;352843;27;71847;-63
2021/03/25 00:10:55;;;;;;;21.98;13.95;;;;;;;12.53;48.45;101578.19;355163;27;1915;-62
2021/03/25 00:11:07;;;;;;;24.48;13.90;;;;;;;12.52;47.96;101576.44;355292;27;1227;-63
2021/03/25 00:11:18;;;;;;;25.17;14.13;;;;;;;12.50;47.71;101578.28;355297;27;1178;-62
2021/03/25 00:11:29;;;;;;;23.52;13.85;;;;;;;12.47;47.76;101581.06;355283;27;1108;-62
2021/03/25 00:11:41;;;;;;;21.20;13.60;;;;;;;12.47;48.30;101578.41;355249;27;1113;-62
2021/03/25 00:11:52;;;;;;;21.65;13.25;;;;;;;12.44;47.90;101579.41;355289;27;1088;-62
2021/03/25 00:12:04;;;;;;;23.15;13.43;;;;;;;12.42;47.87;101575.97;355293;27;1085;-61
2021/03/25 00:12:15;;;;;;;23.55;13.23;;;;;;;12.42;47.88;101575.97;355266;27;1187;-62
2021/03/25 00:12:27;;;;;;;23.10;13.70;;;;;;;12.41;47.95;101576.88;355295;27;1150;-62
2021/03/25 00:12:38;;;;;;;23.40;14.00;;;;;;;12.41;46.80;101573.38;355218;27;1256;-62
2021/03/25 00:12:49;;;;;;;24.08;13.65;;;;;;;12.44;46.98;101578.56;355307;27;1112;-62
2021/03/25 00:13:01;;;;;;;22.15;13.07;;;;;;;12.43;47.36;101572.38;355336;27;1072;-62
2021/03/25 00:13:12;;;;;;;22.90;13.42;;;;;;;12.49;47.59;101576.59;355236;27;1171;-61
2021/03/25 00:13:24;;;;;;;24.88;14.10;;;;;;;12.48;47.67;101574.84;355215;27;1177;-62
2021/03/25 00:13:35;;;;;;;24.50;14.15;;;;;;;12.51;47.46;101574.72;355238;27;1100;-63
2021/03/25 00:13:47;;;;;;;23.98;13.88;;;;;;;12.48;47.36;101567.75;355284;27;1083;-62
2021/03/25 00:13:58;;;;;;;25.23;13.80;;;;;;;12.52;47.12;101579.09;355348;27;1080;-61
2021/03/25 00:14:10;;;;;;;25.92;14.20;;;;;;;12.54;48.30;101578.13;355338;27;1150;-62
2021/03/25 00:14:22;;;;;;;24.02;14.25;;;;;;;12.50;47.01;101579.16;355224;27;1133;-62
2021/03/25 00:14:33;;;;;;;22.77;13.93;;;;;;;12.48;47.92;101573.06;355242;27;1084;-62
2021/03/25 00:14:44;;;;;;;22.52;13.70;;;;;;;12.49;47.73;101580.09;353821;27;1052;-62
2021/03/25 00:14:55;;;;;;;20.60;13.38;;;;;;;12.53;46.87;101578.19;353725;27;1145;-63
2021/03/25 00:15:08;;;;;;;19.40;13.45;;;;;;;12.55;46.84;101576.31;353813;27;1068;-63
2021/03/25 00:15:19;;;;;;;19.77;13.43;;;;;;;12.55;47.56;101576.31;353627;27;1133;-62
2021/03/25 00:15:32;;;;;;;20.63;13.07;;;;;;;12.52;46.45;101573.81;353766;27;1212;-63
2021/03/25 00:15:43;;;;;;;22.73;12.95;;;;;;;12.45;47.52;101575.00;353774;27;1085;-63
2021/03/25 00:15:55;;;;;;;22.02;13.02;;;;;;;12.41;46.96;101576.88;353724;27;1191;-64
2021/03/25 00:16:08;;;;;;;21.48;13.00;;;;;;;12.35;47.45;101583.31;353755;27;1104;-64
2021/03/25 00:16:20;;;;;;;20.42;12.98;;;;;;;12.32;47.85;101578.16;353659;27;1263;-62
2021/03/25 00:16:31;;;;;;;18.67;12.65;;;;;;;12.37;47.66;101576.16;353787;27;1086;-62
2021/03/25 00:16:42;;;;;;;17.88;12.75;;;;;;;12.39;48.07;101576.97;354630;27;1086;-64
2021/03/25 00:16:54;;;;;;;18.40;12.80;;;;;;;12.38;46.76;101580.53;355242;27;1017;-63
2021/03/25 00:17:06;;;;;;;19.60;13.00;;;;;;;12.38;47.82;101583.19;355257;27;1101;-63
2021/03/25 00:17:17;;;;;;;19.95;12.95;;;;;;;12.36;47.84;101574.44;355235;27;1171;-62
2021/03/25 00:17:28;;;;;;;19.88;12.75;;;;;;;12.35;46.96;101577.13;355205;27;1238;-63
2021/03/25 00:17:40;;;;;;;21.67;13.07;;;;;;;12.34;48.17;101584.22;355310;27;1109;-63
2021/03/25 00:17:52;;;;;;;22.75;13.05;;;;;;;12.39;47.56;101576.97;352091;28;1651;-63
2021/03/25 00:18:03;;;;;;;24.42;13.28;;;;;;;12.46;48.08;101574.03;351181;28;2000;-63
2021/03/25 00:18:16;;;;;;;24.50;13.20;;;;;;;12.50;47.23;101575.63;352294;28;1101;-62
2021/03/25 00:18:27;;;;;;;21.92;13.13;;;;;;;12.51;47.15;101575.56;352385;28;1092;-63
2021/03/25 00:18:40;;;;;;;21.08;13.18;;;;;;;12.51;47.83;101577.38;352378;28;1083;-63
2021/03/25 00:18:51;;;;;;;20.30;12.98;;;;;;;12.51;47.26;101577.38;352367;28;1137;-62
2021/03/25 00:19:06;;;;;;;22.17;12.70;;;;;;;12.51;46.79;101575.56;352276;28;1112;-63
2021/03/25 00:19:17;;;;;;;23.70;13.00;;;;;;;12.53;47.53;101578.19;350715;28;49348;-63
2021/03/25 00:19:28;;;;;;;23.25;13.55;;;;;;;12.54;48.09;101574.56;352354;28;1116;-63
2021/03/25 00:19:39;;;;;;;20.88;13.48;;;;;;;12.54;46.85;101575.47;352320;28;1579;-62
2021/03/25 00:19:50;;;;;;;20.23;13.23;;;;;;;12.54;47.19;101575.47;352181;27;1667;-62
2021/03/25 00:20:08;;;;;;;19.90;12.77;;;;;;;12.55;46.87;101574.50;353671;27;1162;-63
2021/03/25 00:20:20;;;;;;;21.20;13.02;;;;;;;12.55;47.97;101577.16;351324;27;72052;-62
2021/03/25 00:20:31;;;;;;;21.55;13.23;;;;;;;12.53;47.87;101573.72;353739;27;1060;-62
2021/03/25 00:20:43;;;;;;;21.35;13.00;;;;;;;12.54;47.97;101567.50;353796;27;1064;-62
2021/03/25 00:20:55;;;;;;;22.17;13.38;;;;;;;12.54;48.08;101578.13;353651;27;1867;-63
2021/03/25 00:21:08;;;;;;;22.55;13.30;;;;;;;12.53;47.98;101573.72;353725;27;1262;-63
2021/03/25 00:21:19;;;;;;;22.20;13.10;;;;;;;12.52;47.83;101582.59;352340;28;1232;-62
2021/03/25 00:21:31;;;;;;;22.80;13.35;;;;;;;12.47;46.49;101573.13;352306;28;1208;-65
2021/03/25 00:21:42;;;;;;;23.02;13.05;;;;;;;12.49;47.10;101576.59;352407;28;1137;-63
2021/03/25 00:21:54;;;;;;;22.17;12.90;;;;;;;12.45;46.78;101570.53;353654;27;1076;-65
2021/03/25 00:22:05;;;;;;;23.30;13.18;;;;;;;12.44;46.79;101575.91;353773;27;1150;-65
2021/03/25 00:22:16;;;;;;;22.48;13.23;;;;;;;12.43;47.06;101571.53;353824;27;1159;-62
2021/03/25 00:22:27;;;;;;;21.13;13.38;;;;;;;12.42;47.07;101568.03;353728;27;1068;-62
2021/03/25 00:22:38;;;;;;;20.08;12.68;;;;;;;12.43;47.25;101568.88;353829;27;1126;-62
2021/03/25 00:22:50;;;;;;;21.92;12.77;;;;;;;12.48;48.03;101574.84;353609;27;1125;-62
2021/03/25 00:23:02;;;;;;;20.77;12.32;;;;;;;12.43;46.95;101569.72;353721;27;1141;-63
2021/03/25 00:23:14;;;;;;;22.63;12.70;;;;;;;12.48;47.76;101572.19;354097;27;1092;-64
2021/03/25 00:23:26;;;;;;;22.23;12.80;;;;;;;12.49;46.63;101566.84;355273;27;1157;-63
2021/03/25 00:23:38;;;;;;;21.23;12.75;;;;;;;12.45;46.79;101569.69;355192;27;1159;-64
2021/03/25 00:23:49;;;;;;;21.88;13.00;;;;;;;12.26;46.47;101570.44;355302;27;1293;-67
2021/03/25 00:24:00;;;;;;;21.65;13.10;;;;;;;12.29;47.31;101569.44;355329;27;1127;-63
2021/03/25 00:24:17;;;;;;;23.55;13.20;;;;;;;12.27;47.23;101577.47;355275;27;1137;-64
2021/03/25 00:24:28;;;;;;;25.20;13.20;;;;;;;12.33;47.02;101577.19;352839;27;72166;-63
2021/03/25 00:24:39;;;;;;;23.98;12.90;;;;;;;12.36;47.28;101568.25;355132;27;1096;-64
2021/03/25 00:24:50;;;;;;;22.33;12.85;;;;;;;12.39;46.83;101565.47;355290;27;1063;-63
2021/03/25 00:25:05;;;;;;;22.17;13.07;;;;;;;12.43;47.87;101566.22;355255;27;1415;-62
2021/03/25 00:25:21;;;;;;;22.50;13.25;;;;;;;12.41;47.59;101574.25;354456;27;24191;-63
2021/03/25 00:25:34;;;;;;;21.60;13.15;;;;;;;12.36;47.94;101571.78;352747;27;71976;-63
2021/03/25 00:25:45;;;;;;;21.20;13.35;;;;;;;12.41;47.17;101570.75;355250;27;1272;-63
2021/03/25 00:25:57;;;;;;;20.25;13.13;;;;;;;12.41;47.80;101568.94;355265;27;1172;-64
2021/03/25 00:26:08;;;;;;;20.30;13.00;;;;;;;12.41;46.91;101573.38;355248;27;1159;-63
2021/03/25 00:26:19;;;;;;;21.25;13.10;;;;;;;12.35;46.39;101569.19;355298;27;1183;-64
2021/03/25 00:26:31;;;;;;;22.45;13.27;;;;;;;12.30;46.27;101568.53;355178;27;1329;-64
2021/03/25 00:26:43;;;;;;;22.85;13.18;;;;;;;12.30;47.60;101572.03;355303;27;1076;-62
2021/03/25 00:26:54;;;;;;;20.80;12.63;;;;;;;12.29;47.60;101575.59;355305;27;1084;-61
2021/03/25 00:27:06;;;;;;;18.60;12.38;;;;;;;12.28;47.87;101571.25;353727;27;1052;-62
2021/03/25 00:27:17;;;;;;;17.88;12.65;;;;;;;12.31;48.33;101572.88;353774;27;1151;-63
2021/03/25 00:27:28;;;;;;;18.38;12.65;;;;;;;12.33;48.35;101569.25;353694;27;1068;-62
2021/03/25 00:27:39;;;;;;;21.10;12.75;;;;;;;12.33;47.92;101566.59;353807;27;1060;-62
2021/03/25 00:27:50;;;;;;;21.15;12.90;;;;;;;12.34;48.04;101575.44;353737;27;1142;-63
2021/03/25 00:28:02;;;;;;;21.85;12.95;;;;;;;12.35;47.38;101578.00;353761;27;1129;-62
2021/03/25 00:28:17;;;;;;;21.63;12.88;;;;;;;12.38;48.10;101571.72;353743;27;1072;-62
2021/03/25 00:28:28;;;;;;;22.63;12.93;;;;;;;12.35;47.37;101577.13;351752;27;48274;-63
2021/03/25 00:28:39;;;;;;;21.35;13.20;;;;;;;12.35;48.31;101578.00;352245;27;1742;-62
2021/03/25 00:28:50;;;;;;;21.98;13.27;;;;;;;12.35;47.37;101570.06;353794;27;1060;-61
2021/03/25 00:29:02;;;;;;;21.08;13.15;;;;;;;12.39;48.29;101570.78;354523;27;1088;-64
2021/03/25 00:29:14;;;;;;;23.48;13.68;;;;;;;12.35;47.97;101569.19;355213;27;1088;-63
2021/03/25 00:29:25;;;;;;;23.17;13.57;;;;;;;12.29;47.81;101570.31;355256;27;1182;-63
2021/03/25 00:29:36;;;;;;;21.48;13.45;;;;;;;12.27;47.42;101574.81;355326;27;1146;-64
2021/03/25 00:29:47;;;;;;;22.35;13.60;;;;;;;12.27;48.12;101572.16;355244;27;1140;-63
2021/03/25 00:29:59;;;;;;;23.08;13.88;;;;;;;12.26;47.28;101570.44;355269;27;1189;-62
2021/03/25 00:30:13;;;;;;;23.50;14.02;;;;;;;12.29;47.47;101569.44;355211;27;1099;-64
2021/03/25 00:30:28;;;;;;;23.25;14.20;;;;;;;12.29;48.27;101570.31;353633;27;48140;-62
2021/03/25 00:30:40;;;;;;;23.98;13.82;;;;;;;12.28;47.39;101567.72;353615;27;48142;-62
2021/03/25 00:30:51;;;;;;;23.83;14.07;;;;;;;12.28;47.70;101568.59;355259;27;1151;-63
2021/03/25 00:31:02;;;;;;;23.73;14.27;;;;;;;12.27;47.90;101568.63;355179;27;1211;-63
2021/03/25 00:31:13;;;;;;;21.98;14.00;;;;;;;12.28;47.87;101563.31;355024;27;1959;-63
2021/03/25 00:31:24;;;;;;;23.52;13.88;;;;;;;12.30;48.34;101566.72;355307;27;1178;-63
2021/03/25 00:31:35;;;;;;;23.42;13.80;;;;;;;12.30;48.80;101568.53;355296;27;1084;-63
2021/03/25 00:31:47;;;;;;;22.58;13.88;;;;;;;12.29;48.33;101564.16;355238;27;1204;-63
2021/03/25 00:31:58;;;;;;;21.60;14.18;;;;;;;12.28;48.47;101568.59;355106;27;1292;-63
2021/03/25 00:32:10;;;;;;;20.98;13.90;;;;;;;12.24;47.48;101561.69;355168;27;1071;-62
2021/03/25 00:32:21;;;;;;;21.10;13.77;;;;;;;12.24;48.00;101569.66;355290;27;1065;-62
2021/03/25 00:32:33;;;;;;;22.08;13.90;;;;;;;12.25;48.66;101565.19;355232;27;1292;-63
2021/03/25 00:32:44;;;;;;;21.98;14.25;;;;;;;12.25;48.76;101566.06;355228;27;1166;-61
2021/03/25 00:32:57;;;;;;;20.27;13.77;;;;;;;12.22;47.19;101563.53;355236;27;1089;-62
2021/03/25 00:33:11;;;;;;;19.92;13.07;;;;;;;12.22;48.00;101563.53;354381;27;25466;-63
2021/03/25 00:33:24;;;;;;;21.13;12.90;;;;;;;12.24;48.83;101560.81;353701;27;46380;-62
2021/03/25 00:33:36;;;;;;;21.33;13.00;;;;;;;12.25;47.33;101558.09;355287;27;1072;-63
2021/03/25 00:33:47;;;;;;;21.65;13.00;;;;;;;12.25;48.86;101563.41;355321;27;1170;-62
2021/03/25 00:33:59;;;;;;;21.48;12.98;;;;;;;12.22;48.45;101563.53;355209;27;1036;-63
2021/03/25 00:34:11;;;;;;;22.63;13.52;;;;;;;12.22;48.34;101564.38;355305;27;1158;-63
2021/03/25 00:34:22;;;;;;;22.48;14.18;;;;;;;12.21;48.40;101561.81;353723;27;1112;-63
2021/03/25 00:34:34;;;;;;;23.42;14.68;;;;;;;12.24;49.04;101566.13;353778;27;1143;-63
2021/03/25 00:34:45;;;;;;;24.70;14.98;;;;;;;12.24;47.27;101559.06;353676;27;1227;-63
2021/03/25 00:34:56;;;;;;;26.75;15.00;;;;;;;12.25;48.98;101555.47;352185;28;1204;-62
2021/03/25 00:35:10;;;;;;;26.27;14.85;;;;;;;12.23;48.73;101565.28;352325;28;1242;-62
2021/03/25 00:35:23;;;;;;;22.77;14.07;;;;;;;12.18;48.20;101557.50;351530;28;23984;-63
2021/03/25 00:35:36;;;;;;;22.15;14.05;;;;;;;12.18;48.73;101559.28;352354;28;1107;-63
2021/03/25 00:35:48;;;;;;;21.42;14.18;;;;;;;12.17;47.45;101560.22;352270;28;1271;-63
2021/03/25 00:35:59;;;;;;;21.38;13.75;;;;;;;12.18;47.85;101565.44;352312;28;1155;-61
2021/03/25 00:36:10;;;;;;;20.48;13.48;;;;;;;12.16;47.68;101558.50;352329;28;1069;-66
2021/03/25 00:36:21;;;;;;;19.40;13.40;;;;;;;12.16;47.81;101559.34;353354;27;1269;-64
2021/03/25 00:36:33;;;;;;;20.13;13.27;;;;;;;12.12;48.91;101565.69;353718;27;1149;-62
2021/03/25 00:36:44;;;;;;;19.95;13.18;;;;;;;12.14;48.66;101558.53;353660;27;1199;-62
2021/03/25 00:36:55;;;;;;;21.00;12.93;;;;;;;12.13;48.77;101555.97;354727;27;1235;-60
2021/03/25 00:37:06;;;;;;;22.00;13.05;;;;;;;12.13;48.78;101559.50;355285;27;1207;-61
2021/03/25 00:37:17;;;;;;;21.94;12.92;;;;;;;12.15;48.04;101556.78;355202;27;1185;-61
2021/03/25 00:37:28;;;;;;;22.17;13.20;;;;;;;12.12;48.27;101557.75;355277;27;1139;-61
2021/03/25 00:37:40;;;;;;;23.08;13.32;;;;;;;12.11;48.07;101555.19;355169;27;1073;-60
2021/03/25 00:37:51;;;;;;;24.65;13.38;;;;;;;12.11;48.48;101556.03;355290;27;1151;-60
2021/03/25 00:38:04;;;;;;;25.90;13.32;;;;;;;12.08;48.00;101558.81;355236;27;1279;-61
2021/03/25 00:38:25;;;;;;;23.77;13.07;;;;;;;12.10;48.64;101559.59;352842;27;71490;-61
2021/03/25 00:38:36;;;;;;;22.92;13.07;;;;;;;12.11;49.42;101555.19;355197;27;1145;-61
2021/03/25 00:38:49;;;;;;;23.70;13.15;;;;;;;12.10;48.88;101553.44;355206;27;1063;-61
2021/03/25 00:39:00;;;;;;;23.60;13.18;;;;;;;12.09;48.89;101557.00;353717;27;1171;-61
2021/03/25 00:39:12;;;;;;;22.55;12.98;;;;;;;12.09;48.13;101559.66;352959;27;1697;-60
2021/03/25 00:39:24;;;;;;;22.77;13.20;;;;;;;12.07;48.56;101554.44;352831;27;1954;-61
2021/03/25 00:39:35;;;;;;;23.02;13.65;;;;;;;12.07;48.25;101553.56;352250;28;1092;-60
2021/03/25 00:39:47;;;;;;;22.35;13.63;;;;;;;12.08;47.67;101555.31;352380;28;1084;-61
2021/03/25 00:39:58;;;;;;;22.38;13.23;;;;;;;12.08;48.72;101553.50;352308;28;1184;-62
2021/03/25 00:40:10;;;;;;;21.15;12.82;;;;;;;12.06;48.27;101558.00;352267;28;1438;-62
2021/03/25 00:40:21;;;;;;;21.45;13.02;;;;;;;12.07;48.02;101558.88;352282;28;1097;-62
2021/03/25 00:40:33;;;;;;;21.13;12.85;;;;;;;12.07;48.64;101549.13;352227;28;1141;-61
2021/03/25 00:40:46;;;;;;;21.65;12.95;;;;;;;12.08;48.22;101550.00;350849;28;1223;-61
2021/03/25 00:40:57;;;;;;;22.08;13.27;;;;;;;12.08;48.42;101555.31;350149;28;23830;-61
2021/03/25 00:41:09;;;;;;;20.77;12.90;;;;;;;12.02;47.71;101559.91;350907;28;1153;-62
2021/03/25 00:41:20;;;;;;;19.50;12.75;;;;;;;11.99;48.82;101552.09;350939;28;1165;-61
2021/03/25 00:41:33;;;;;;;19.80;12.70;;;;;;;12.00;48.36;101556.47;350890;28;1033;-61
2021/03/25 00:41:44;;;;;;;25.13;13.00;;;;;;;11.98;48.63;101553.03;350858;28;1331;-61
2021/03/25 00:41:55;;;;;;;24.77;13.05;;;;;;;12.00;47.83;101553.81;350956;28;1492;-60
2021/03/25 00:42:07;;;;;;;21.90;12.45;;;;;;;12.00;48.25;101548.50;351236;28;1759;-62
2021/03/25 00:42:19;;;;;;;21.45;12.50;;;;;;;11.99;48.15;101552.09;352315;28;1009;-61
2021/03/25 00:42:30;;;;;;;21.67;12.25;;;;;;;11.98;48.02;101545.06;353016;27;1201;-62
2021/03/25 00:42:41;;;;;;;22.40;12.73;;;;;;;11.97;48.38;101551.28;353739;27;1225;-61
2021/03/25 00:42:53;;;;;;;23.13;12.85;;;;;;;11.94;48.42;101551.41;354298;27;1167;-62
2021/03/25 00:43:06;;;;;;;24.48;13.10;;;;;;;11.95;48.27;101554.91;355124;27;1737;-61
2021/03/25 00:43:21;;;;;;;24.63;13.38;;;;;;;11.96;48.44;101546.91;354966;27;1754;-60
2021/03/25 00:43:33;;;;;;;20.75;12.80;;;;;;;11.93;48.90;101549.66;352831;27;71920;-61
2021/03/25 00:43:44;;;;;;;20.60;12.73;;;;;;;11.86;48.24;101550.84;355287;27;1033;-63
2021/03/25 00:43:55;;;;;;;23.23;12.98;;;;;;;11.81;48.60;101555.44;355294;27;1156;-62
2021/03/25 00:44:11;;;;;;;22.08;12.68;;;;;;;11.75;48.47;101551.25;355268;27;1116;-61
2021/03/25 00:44:23;;;;;;;17.77;12.10;;;;;;;11.76;48.71;101550.34;352797;27;72130;-62
2021/03/25 00:44:34;;;;;;;18.67;12.27;;;;;;;11.79;49.25;101550.22;355236;27;1200;-61
2021/03/25 00:44:45;;;;;;;19.55;12.30;;;;;;;11.82;49.33;101550.06;355214;27;1076;-62
2021/03/25 00:44:56;;;;;;;21.52;12.88;;;;;;;11.81;47.74;101553.63;355307;27;1154;-61
2021/03/25 00:45:14;;;;;;;22.05;12.93;;;;;;;11.80;48.06;101546.66;355154;27;1089;-61
2021/03/25 00:45:33;;;;;;;21.58;12.57;;;;;;;11.77;48.62;101549.38;352813;27;70933;-62
2021/03/25 00:45:46;;;;;;;22.75;12.75;;;;;;;11.76;47.60;101552.09;352886;27;70833;-61
2021/03/25 00:45:57;;;;;;;23.55;12.98;;;;;;;11.68;48.35;101545.31;355290;27;1289;-62
2021/03/25 00:46:08;;;;;;;25.50;13.07;;;;;;;11.72;48.44;101548.72;355093;27;2021;-61
2021/03/25 00:46:20;;;;;;;25.60;13.02;;;;;;;11.74;48.52;101540.72;355204;27;1013;-62
2021/03/25 00:46:32;;;;;;;24.55;13.20;;;;;;;11.75;49.22;101547.75;355207;27;1101;-61
2021/03/25 00:46:43;;;;;;;24.15;13.20;;;;;;;11.77;47.97;101541.44;355227;27;1170;-61
2021/03/25 00:46:55;;;;;;;23.25;13.00;;;;;;;11.71;49.29;101544.34;355277;27;1187;-62
2021/03/25 00:47:06;;;;;;;23.63;13.07;;;;;;;11.70;48.48;101548.78;355156;27;1080;-61
2021/03/25 00:47:18;;;;;;;23.67;13.40;;;;;;;11.71;48.37;101547.00;355261;27;1064;-61
2021/03/25 00:47:29;;;;;;;25.27;13.60;;;;;;;11.65;48.24;101548.09;355250;27;1158;-62
2021/03/25 00:47:42;;;;;;;24.35;13.45;;;;;;;11.62;48.89;101547.34;355254;27;1162;-63
2021/03/25 00:47:54;;;;;;;24.33;13.52;;;;;;;11.53;48.61;101543.28;355100;27;1160;-61
2021/03/25 00:48:06;;;;;;;24.20;13.50;;;;;;;11.52;49.04;101552.13;353723;27;1052;-61
2021/03/25 00:48:21;;;;;;;23.08;13.35;;;;;;;11.53;48.96;101545.94;353708;27;1277;-61
2021/03/25 00:48:32;;;;;;;22.85;13.10;;;;;;;11.54;49.28;101550.31;352904;27;24013;-62
2021/03/25 00:48:43;;;;;;;23.80;12.82;;;;;;;11.54;49.29;101547.66;353702;27;1075;-62
2021/03/25 00:48:55;;;;;;;22.45;12.43;;;;;;;11.54;49.24;101545.88;353697;27;1083;-62
2021/03/25 00:49:06;;;;;;;21.70;12.60;;;;;;;11.53;48.90;101546.78;353750;27;1105;-61
2021/03/25 00:49:17;;;;;;;23.45;12.75;;;;;;;11.56;48.88;101545.81;353746;27;1013;-62
2021/03/25 00:49:30;;;;;;;24.23;12.95;;;;;;;11.64;49.70;101549.00;353681;27;1140;-64
2021/03/25 00:49:41;;;;;;;21.95;13.13;;;;;;;11.62;48.93;101552.63;353729;27;1068;-61
2021/03/25 00:49:52;;;;;;;21.13;12.90;;;;;;;11.62;49.01;101550.00;353685;27;1103;-61
2021/03/25 00:50:11;;;;;;;21.20;13.18;;;;;;;11.64;48.61;101553.47;354825;27;1084;-62
2021/03/25 00:50:34;;;;;;;22.02;13.23;;;;;;;11.61;49.04;101553.56;352804;27;71074;-61
2021/03/25 00:50:57;;;;;;;22.30;13.40;;;;;;;11.48;48.18;101550.53;352718;27;71705;-61
2021/03/25 00:51:09;;;;;;;23.40;13.75;;;;;;;11.51;49.56;101553.94;352844;27;71508;-61
2021/03/25 00:51:20;;;;;;;23.27;13.57;;;;;;;11.53;48.69;101552.06;355269;27;1031;-60
2021/03/25 00:51:32;;;;;;;23.20;13.77;;;;;;;11.58;48.38;101549.25;355147;27;1975;-60
2021/03/25 00:51:43;;;;;;;22.25;13.57;;;;;;;11.60;48.64;101552.69;353672;27;1096;-61
2021/03/25 00:51:54;;;;;;;21.95;13.27;;;;;;;11.64;49.40;101556.09;353708;27;1182;-60
2021/03/25 00:52:05;;;;;;;19.52;12.93;;;;;;;11.60;49.17;101555.34;353753;27;1095;-61
2021/03/25 00:52:20;;;;;;;20.92;13.10;;;;;;;11.61;49.85;101556.19;352165;27;47587;-62
2021/03/25 00:52:32;;;;;;;21.98;13.23;;;;;;;11.63;49.47;101555.22;353215;27;1646;-62
2021/03/25 00:52:43;;;;;;;21.08;12.95;;;;;;;11.69;48.58;101554.13;352471;28;1884;-62
2021/03/25 00:52:54;;;;;;;21.67;13.13;;;;;;;11.73;49.25;101554.88;353771;27;1080;-61
2021/03/25 00:53:08;;;;;;;20.48;12.93;;;;;;;11.77;49.92;101556.47;353762;27;1170;-61
2021/03/25 00:53:33;;;;;;;20.17;13.02;;;;;;;11.75;48.73;101553.91;353726;27;1089;-61
2021/03/25 00:53:44;;;;;;;22.50;13.77;;;;;;;11.74;49.56;101556.59;352752;27;70530;-60
2021/03/25 00:53:56;;;;;;;22.85;13.43;;;;;;;11.77;48.91;101551.19;355289;27;1136;-62
2021/03/25 00:54:07;;;;;;;23.10;13.35;;;;;;;11.73;48.85;101550.44;355250;27;1192;-62
2021/03/25 00:54:18;;;;;;;24.38;13.40;;;;;;;11.71;48.79;101558.44;355313;27;1074;-62
2021/03/25 00:54:29;;;;;;;23.08;13.43;;;;;;;11.67;49.30;101553.34;355213;27;1289;-61
2021/03/25 00:54:40;;;;;;;23.17;13.70;;;;;;;11.66;49.15;101549.84;355227;27;1088;-61
2021/03/25 00:54:51;;;;;;;21.95;13.82;;;;;;;11.68;48.01;101547.97;355284;27;1064;-62
2021/03/25 00:55:05;;;;;;;22.10;13.70;;;;;;;11.68;48.78;101553.25;355227;27;1195;-62
2021/03/25 00:55:16;;;;;;;20.65;13.43;;;;;;;11.69;48.08;101551.47;355283;27;1154;-61
2021/03/25 00:55:27;;;;;;;19.83;13.40;;;;;;;11.66;49.19;101552.47;355128;27;1195;-61
2021/03/25 00:55:39;;;;;;;21.06;13.38;;;;;;;11.67;48.18;101545.41;355171;27;1137;-61
2021/03/25 00:55:50;;;;;;;22.95;13.50;;;;;;;11.70;49.45;101548.78;355258;27;1171;-62
2021/03/25 00:56:04;;;;;;;22.70;13.52;;;;;;;11.65;49.19;101553.41;355285;27;1166;-61
2021/03/25 00:56:15;;;;;;;23.92;13.35;;;;;;;11.65;47.87;101547.22;354400;27;24188;-62
2021/03/25 00:56:26;;;;;;;25.77;13.57;;;;;;;11.70;48.60;101551.44;355160;27;1191;-62
2021/03/25 00:56:37;;;;;;;23.83;13.68;;;;;;;11.73;49.39;101545.13;355199;27;1068;-61
2021/03/25 00:56:48;;;;;;;22.08;13.63;;;;;;;11.74;49.77;101556.59;355191;27;1141;-62
2021/03/25 00:57:00;;;;;;;20.27;13.77;;;;;;;11.72;48.15;101559.31;355242;27;1281;-61
2021/03/25 00:57:11;;;;;;;18.88;13.93;;;;;;;11.66;48.28;101549.84;355241;27;2012;-61